createdAt,value
2017-07-04T00:00:10.884Z,22.43
2017-07-04T00:00:36.464Z,22.46
2017-07-04T00:01:02.014Z,22.46
2017-07-04T00:01:27.626Z,22.53
2017-07-04T00:01:53.248Z,22.46
2017-07-04T00:02:18.820Z,22.49
2017-07-04T00:02:44.395Z,22.49
2017-07-04T00:03:09.996Z,22.44
2017-07-04T00:03:35.558Z,22.53
2017-07-04T00:04:01.132Z,22.52
2017-07-04T00:04:26.739Z,22.44
2017-07-04T00:04:52.307Z,22.49
2017-07-04T00:05:17.883Z,22.49
2017-07-04T00:05:43.635Z,22.54
2017-07-04T00:06:09.286Z,22.44
2017-07-04T00:06:34.850Z,22.47
2017-07-04T00:07:00.442Z,22.5
2017-07-04T00:07:26.022Z,22.47
2017-07-04T00:07:51.590Z,22.52
2017-07-04T00:08:17.143Z,22.46
2017-07-04T00:08:42.785Z,22.46
2017-07-04T00:09:08.351Z,22.49
2017-07-04T00:09:33.916Z,22.41
2017-07-04T00:09:59.470Z,22.49
2017-07-04T00:10:25.118Z,22.47
2017-07-04T00:10:50.709Z,22.46
2017-07-04T00:11:16.222Z,22.49
2017-07-04T00:11:41.785Z,22.49
2017-07-04T00:12:07.342Z,22.47
2017-07-04T00:12:32.925Z,22.52
2017-07-04T00:12:58.497Z,22.5
2017-07-04T00:13:24.074Z,22.46
2017-07-04T00:13:49.633Z,22.53
2017-07-04T00:14:15.266Z,22.43
2017-07-04T00:14:40.982Z,22.41
2017-07-04T00:15:06.521Z,22.47
2017-07-04T00:15:32.090Z,22.53
2017-07-04T00:15:57.657Z,22.41
2017-07-04T00:16:23.217Z,22.49
2017-07-04T00:16:48.787Z,22.49
2017-07-04T00:17:14.330Z,22.49
2017-07-04T00:17:39.930Z,22.53
2017-07-04T00:18:05.488Z,22.44
2017-07-04T00:18:31.054Z,22.49
2017-07-04T00:18:56.611Z,22.54
2017-07-04T00:19:22.208Z,22.43
2017-07-04T00:19:47.787Z,22.49
2017-07-04T00:20:13.342Z,22.46
2017-07-04T00:20:38.983Z,22.43
2017-07-04T00:21:04.549Z,22.49
2017-07-04T00:21:30.150Z,22.44
2017-07-04T00:21:55.787Z,22.43
2017-07-04T00:22:21.353Z,22.52
2017-07-04T00:22:46.906Z,22.53
2017-07-04T00:23:12.493Z,22.47
2017-07-04T00:23:38.085Z,22.47
2017-07-04T00:24:03.631Z,22.5
2017-07-04T00:24:29.191Z,22.43
2017-07-04T00:24:54.753Z,22.53
2017-07-04T00:25:20.307Z,22.43
2017-07-04T00:25:45.938Z,22.53
2017-07-04T00:26:11.494Z,22.47
2017-07-04T00:26:37.042Z,22.5
2017-07-04T00:27:02.644Z,22.52
2017-07-04T00:27:28.209Z,22.5
2017-07-04T00:27:53.772Z,22.43
2017-07-04T00:28:19.394Z,22.57
2017-07-04T00:28:44.993Z,22.52
2017-07-04T00:29:10.571Z,22.47
2017-07-04T00:29:36.156Z,22.44
2017-07-04T00:30:01.782Z,22.47
2017-07-04T00:30:27.363Z,22.47
2017-07-04T00:30:52.908Z,22.46
2017-07-04T00:31:18.492Z,22.54
2017-07-04T00:31:44.174Z,22.46
2017-07-04T00:32:09.726Z,22.5
2017-07-04T00:32:35.285Z,22.43
2017-07-04T00:33:00.886Z,22.46
2017-07-04T00:33:26.445Z,22.47
2017-07-04T00:33:52.001Z,22.46
2017-07-04T00:34:17.592Z,22.49
2017-07-04T00:34:43.150Z,22.47
2017-07-04T00:35:08.753Z,22.44
2017-07-04T00:35:34.295Z,22.46
2017-07-04T00:35:59.853Z,22.43
2017-07-04T00:36:25.396Z,22.5
2017-07-04T00:36:50.988Z,22.46
2017-07-04T00:37:16.539Z,22.43
2017-07-04T00:37:42.164Z,22.44
2017-07-04T00:38:07.781Z,22.44
2017-07-04T00:38:33.368Z,22.43
2017-07-04T00:38:58.921Z,22.43
2017-07-04T00:39:24.506Z,22.49
2017-07-04T00:39:50.080Z,22.49
2017-07-04T00:40:15.641Z,22.5
2017-07-04T00:40:41.242Z,22.49
2017-07-04T00:41:06.805Z,22.53
2017-07-04T00:41:32.362Z,22.49
2017-07-04T00:42:26.216Z,22.52
2017-07-04T00:42:51.770Z,22.44
2017-07-04T00:43:17.394Z,22.44
2017-07-04T00:43:42.994Z,22.52
2017-07-04T00:44:08.563Z,22.47
2017-07-04T00:44:34.150Z,22.47
2017-07-04T00:44:59.704Z,22.44
2017-07-04T00:45:25.255Z,22.49
2017-07-04T00:45:50.866Z,22.41
2017-07-04T00:46:16.476Z,22.47
2017-07-04T00:46:42.036Z,22.52
2017-07-04T00:47:07.578Z,22.53
2017-07-04T00:47:33.274Z,22.44
2017-07-04T00:47:58.830Z,22.44
2017-07-04T00:48:24.401Z,22.49
2017-07-04T00:48:49.956Z,22.47
2017-07-04T00:49:15.524Z,22.5
2017-07-04T00:49:41.085Z,22.5
2017-07-04T00:50:06.742Z,22.47
2017-07-04T00:50:32.295Z,22.47
2017-07-04T00:50:57.840Z,22.43
2017-07-04T00:51:23.419Z,22.47
2017-07-04T00:51:48.971Z,22.47
2017-07-04T00:52:14.533Z,22.43
2017-07-04T00:52:40.160Z,22.44
2017-07-04T00:53:05.718Z,22.44
2017-07-04T00:53:31.268Z,22.52
2017-07-04T00:53:56.824Z,22.5
2017-07-04T00:54:22.581Z,22.49
2017-07-04T00:54:48.091Z,22.5
2017-07-04T00:55:13.681Z,22.47
2017-07-04T00:55:39.233Z,22.47
2017-07-04T00:56:04.796Z,22.43
2017-07-04T00:56:30.356Z,22.47
2017-07-04T00:56:55.941Z,22.43
2017-07-04T00:57:21.499Z,22.49
2017-07-04T00:57:47.070Z,22.47
2017-07-04T00:58:12.630Z,22.43
2017-07-04T00:58:38.183Z,22.53
2017-07-04T00:59:03.778Z,22.47
2017-07-04T00:59:29.411Z,22.49
2017-07-04T00:59:54.968Z,22.44
2017-07-04T01:00:20.531Z,22.49
2017-07-04T01:00:46.120Z,22.47
2017-07-04T01:01:11.667Z,22.44
2017-07-04T01:01:37.255Z,22.52
2017-07-04T01:02:02.814Z,22.5
2017-07-04T01:02:28.374Z,22.53
2017-07-04T01:02:54.002Z,22.43
2017-07-04T01:03:19.646Z,22.53
2017-07-04T01:03:45.205Z,22.44
2017-07-04T01:04:10.767Z,22.47
2017-07-04T01:04:36.321Z,22.47
2017-07-04T01:05:01.874Z,22.47
2017-07-04T01:05:27.470Z,22.5
2017-07-04T01:05:53.080Z,22.44
2017-07-04T01:06:18.632Z,22.49
2017-07-04T01:06:44.228Z,22.43
2017-07-04T01:07:09.745Z,22.46
2017-07-04T01:07:35.295Z,22.46
2017-07-04T01:08:00.891Z,22.49
2017-07-04T01:08:26.445Z,22.47
2017-07-04T01:08:52.010Z,22.41
2017-07-04T01:09:17.564Z,22.46
2017-07-04T01:09:43.134Z,22.47
2017-07-04T01:10:08.739Z,22.49
2017-07-04T01:10:34.293Z,22.44
2017-07-04T01:10:59.844Z,22.41
2017-07-04T01:11:25.414Z,22.5
2017-07-04T01:11:50.975Z,22.53
2017-07-04T01:12:16.578Z,22.5
2017-07-04T01:12:42.248Z,22.47
2017-07-04T01:13:07.802Z,22.47
2017-07-04T01:13:33.378Z,22.49
2017-07-04T01:13:58.923Z,22.5
2017-07-04T01:14:24.478Z,22.57
2017-07-04T01:14:50.066Z,22.49
2017-07-04T01:15:15.623Z,22.44
2017-07-04T01:15:41.183Z,22.47
2017-07-04T01:16:06.826Z,22.49
2017-07-04T01:16:32.381Z,22.49
2017-07-04T01:16:57.950Z,22.43
2017-07-04T01:17:23.506Z,22.53
2017-07-04T01:17:49.079Z,22.52
2017-07-04T01:18:14.633Z,22.52
2017-07-04T01:18:40.279Z,22.49
2017-07-04T01:19:06.004Z,22.5
2017-07-04T01:19:31.564Z,22.56
2017-07-04T01:19:57.144Z,22.5
2017-07-04T01:20:22.765Z,22.44
2017-07-04T01:20:48.318Z,22.44
2017-07-04T01:21:13.874Z,22.44
2017-07-04T01:21:39.425Z,22.39
2017-07-04T01:22:04.998Z,22.43
2017-07-04T01:22:30.559Z,22.52
2017-07-04T01:22:56.193Z,22.47
2017-07-04T01:23:21.767Z,22.52
2017-07-04T01:23:47.323Z,22.47
2017-07-04T01:24:12.880Z,22.47
2017-07-04T01:24:38.441Z,22.49
2017-07-04T01:25:04.020Z,22.44
2017-07-04T01:25:29.591Z,22.44
2017-07-04T01:25:55.146Z,22.44
2017-07-04T01:26:20.721Z,22.49
2017-07-04T01:26:46.324Z,22.47
2017-07-04T01:27:11.899Z,22.43
2017-07-04T01:27:37.467Z,22.46
2017-07-04T01:28:03.032Z,22.43
2017-07-04T01:28:28.606Z,22.43
2017-07-04T01:28:54.168Z,22.41
2017-07-04T01:29:19.721Z,22.49
2017-07-04T01:29:45.338Z,22.44
2017-07-04T01:30:10.910Z,22.47
2017-07-04T01:30:36.449Z,22.46
2017-07-04T01:31:02.034Z,22.44
2017-07-04T01:31:27.595Z,22.44
2017-07-04T01:31:53.165Z,22.44
2017-07-04T01:32:18.814Z,22.5
2017-07-04T01:32:44.377Z,22.43
2017-07-04T01:33:09.944Z,22.44
2017-07-04T01:33:35.564Z,22.43
2017-07-04T01:34:01.114Z,22.46
2017-07-04T01:34:26.665Z,22.44
2017-07-04T01:34:52.296Z,22.43
2017-07-04T01:35:17.851Z,22.43
2017-07-04T01:35:43.444Z,22.44
2017-07-04T01:36:09.075Z,22.46
2017-07-04T01:36:34.637Z,22.41
2017-07-04T01:37:00.195Z,22.44
2017-07-04T01:37:25.746Z,22.49
2017-07-04T01:37:51.304Z,22.49
2017-07-04T01:38:16.852Z,22.47
2017-07-04T01:38:42.435Z,22.47
2017-07-04T01:39:07.997Z,22.5
2017-07-04T01:39:33.555Z,22.44
2017-07-04T01:39:59.213Z,22.41
2017-07-04T01:40:24.760Z,22.46
2017-07-04T01:40:50.365Z,22.41
2017-07-04T01:41:15.972Z,22.5
2017-07-04T01:41:41.515Z,22.44
2017-07-04T01:42:07.082Z,22.44
2017-07-04T01:42:32.698Z,22.49
2017-07-04T01:42:58.325Z,22.49
2017-07-04T01:43:23.893Z,22.46
2017-07-04T01:43:49.432Z,22.47
2017-07-04T01:44:14.995Z,22.44
2017-07-04T01:44:40.564Z,22.43
2017-07-04T01:45:06.123Z,22.47
2017-07-04T01:45:31.688Z,22.46
2017-07-04T01:45:57.249Z,22.43
2017-07-04T01:46:22.875Z,22.41
2017-07-04T01:46:48.520Z,22.43
2017-07-04T01:47:14.071Z,22.49
2017-07-04T01:47:39.652Z,22.44
2017-07-04T01:48:05.248Z,22.43
2017-07-04T01:48:30.806Z,22.49
2017-07-04T01:48:56.366Z,22.44
2017-07-04T01:49:21.921Z,22.46
2017-07-04T01:49:47.473Z,22.46
2017-07-04T01:50:13.030Z,22.47
2017-07-04T01:50:38.716Z,22.39
2017-07-04T01:51:04.304Z,22.5
2017-07-04T01:51:29.871Z,22.49
2017-07-04T01:51:55.464Z,22.39
2017-07-04T01:52:21.026Z,22.5
2017-07-04T01:52:46.579Z,22.43
2017-07-04T01:53:12.225Z,22.44
2017-07-04T01:53:37.774Z,22.46
2017-07-04T01:54:03.326Z,22.43
2017-07-04T01:54:28.883Z,22.49
2017-07-04T01:54:54.454Z,22.49
2017-07-04T01:55:20.012Z,22.43
2017-07-04T01:55:45.624Z,22.38
2017-07-04T01:56:11.254Z,22.39
2017-07-04T01:56:36.785Z,22.39
2017-07-04T01:57:02.350Z,22.43
2017-07-04T01:57:27.951Z,22.43
2017-07-04T01:57:53.520Z,22.46
2017-07-04T01:58:19.070Z,22.43
2017-07-04T01:58:44.635Z,22.43
2017-07-04T01:59:10.190Z,22.44
2017-07-04T02:00:14.164Z,22.46
2017-07-04T02:00:39.720Z,22.44
2017-07-04T02:01:05.372Z,22.46
2017-07-04T02:01:30.931Z,22.43
2017-07-04T02:01:56.503Z,22.49
2017-07-04T02:02:22.145Z,22.46
2017-07-04T02:02:47.811Z,22.47
2017-07-04T02:03:13.375Z,22.44
2017-07-04T02:03:38.939Z,22.39
2017-07-04T02:04:04.510Z,22.39
2017-07-04T02:04:30.055Z,22.43
2017-07-04T02:04:55.632Z,22.47
2017-07-04T02:05:21.225Z,22.41
2017-07-04T02:06:09.958Z,22.41
2017-07-04T02:06:35.570Z,22.38
2017-07-04T02:07:01.284Z,22.46
2017-07-04T02:07:26.837Z,22.39
2017-07-04T02:07:52.393Z,22.43
2017-07-04T02:08:17.974Z,22.35
2017-07-04T02:08:43.530Z,22.47
2017-07-04T02:09:09.079Z,22.39
2017-07-04T02:09:34.634Z,22.44
2017-07-04T02:10:00.186Z,22.43
2017-07-04T02:10:25.736Z,22.38
2017-07-04T02:10:51.301Z,22.35
2017-07-04T02:11:16.864Z,22.35
2017-07-04T02:11:42.509Z,22.41
2017-07-04T02:12:08.103Z,22.44
2017-07-04T02:12:33.788Z,22.46
2017-07-04T02:12:59.342Z,22.41
2017-07-04T02:13:24.913Z,22.39
2017-07-04T02:13:50.519Z,22.39
2017-07-04T02:14:16.049Z,22.44
2017-07-04T02:14:41.597Z,22.44
2017-07-04T02:15:07.163Z,22.41
2017-07-04T02:15:32.732Z,22.46
2017-07-04T02:15:58.313Z,22.37
2017-07-04T02:16:23.980Z,22.35
2017-07-04T02:16:49.521Z,22.46
2017-07-04T02:17:15.074Z,22.47
2017-07-04T02:17:40.662Z,22.43
2017-07-04T02:18:06.208Z,22.43
2017-07-04T02:18:31.779Z,22.43
2017-07-04T02:18:57.533Z,22.41
2017-07-04T02:19:23.115Z,22.39
2017-07-04T02:19:48.680Z,22.38
2017-07-04T02:20:14.236Z,22.44
2017-07-04T02:20:39.804Z,22.44
2017-07-04T02:21:05.374Z,22.35
2017-07-04T02:21:30.959Z,22.39
2017-07-04T02:21:56.536Z,22.43
2017-07-04T02:22:22.081Z,22.39
2017-07-04T02:22:47.648Z,22.39
2017-07-04T02:23:13.208Z,22.39
2017-07-04T02:23:38.774Z,22.39
2017-07-04T02:24:04.371Z,22.35
2017-07-04T02:24:29.943Z,22.39
2017-07-04T02:24:55.504Z,22.39
2017-07-04T02:25:21.091Z,22.43
2017-07-04T02:25:46.644Z,22.39
2017-07-04T02:26:12.235Z,22.41
2017-07-04T02:27:21.333Z,22.35
2017-07-04T02:28:30.056Z,22.39
2017-07-04T02:28:55.645Z,22.43
2017-07-04T02:29:21.200Z,22.41
2017-07-04T02:29:46.763Z,22.39
2017-07-04T02:30:12.323Z,22.39
2017-07-04T02:30:37.865Z,22.39
2017-07-04T02:31:03.425Z,22.37
2017-07-04T02:31:28.986Z,22.41
2017-07-04T02:31:54.537Z,22.37
2017-07-04T02:32:20.222Z,22.38
2017-07-04T02:32:45.821Z,22.38
2017-07-04T02:33:11.400Z,22.41
2017-07-04T02:33:36.967Z,22.35
2017-07-04T02:34:02.514Z,22.34
2017-07-04T02:34:28.067Z,22.32
2017-07-04T02:34:53.623Z,22.43
2017-07-04T02:35:19.188Z,22.43
2017-07-04T02:35:44.750Z,22.34
2017-07-04T02:36:10.307Z,22.38
2017-07-04T02:36:35.909Z,22.37
2017-07-04T02:37:01.451Z,22.38
2017-07-04T02:37:27.021Z,22.39
2017-07-04T02:37:52.584Z,22.38
2017-07-04T02:38:18.171Z,22.38
2017-07-04T02:38:43.730Z,22.38
2017-07-04T02:39:09.300Z,22.38
2017-07-04T02:39:34.853Z,22.34
2017-07-04T02:40:00.390Z,22.38
2017-07-04T02:40:25.962Z,22.43
2017-07-04T02:40:51.521Z,22.39
2017-07-04T02:41:17.084Z,22.37
2017-07-04T02:41:42.622Z,22.41
2017-07-04T02:42:08.177Z,22.39
2017-07-04T02:42:33.755Z,22.43
2017-07-04T02:42:59.323Z,22.37
2017-07-04T02:43:24.884Z,22.44
2017-07-04T02:43:50.455Z,22.37
2017-07-04T02:44:16.019Z,22.32
2017-07-04T02:44:41.590Z,22.43
2017-07-04T02:45:07.159Z,22.38
2017-07-04T02:45:32.733Z,22.37
2017-07-04T02:45:58.306Z,22.38
2017-07-04T02:46:23.855Z,22.39
2017-07-04T02:46:49.410Z,22.38
2017-07-04T02:47:14.975Z,22.38
2017-07-04T02:47:40.527Z,22.39
2017-07-04T02:48:06.070Z,22.37
2017-07-04T02:48:31.751Z,22.35
2017-07-04T02:48:57.330Z,22.39
2017-07-04T02:49:22.902Z,22.41
2017-07-04T02:49:48.455Z,22.35
2017-07-04T02:50:14.127Z,22.39
2017-07-04T02:50:39.726Z,22.39
2017-07-04T02:51:05.273Z,22.38
2017-07-04T02:51:30.837Z,22.39
2017-07-04T02:51:56.394Z,22.39
2017-07-04T02:52:21.941Z,22.41
2017-07-04T02:52:47.602Z,22.39
2017-07-04T02:53:13.160Z,22.41
2017-07-04T02:53:38.730Z,22.37
2017-07-04T02:54:04.294Z,22.39
2017-07-04T02:54:29.876Z,22.38
2017-07-04T02:54:55.488Z,22.39
2017-07-04T02:55:21.024Z,22.39
2017-07-04T02:55:46.594Z,22.38
2017-07-04T02:56:12.156Z,22.37
2017-07-04T02:56:37.723Z,22.37
2017-07-04T02:57:03.374Z,22.35
2017-07-04T02:57:28.926Z,22.34
2017-07-04T02:57:54.482Z,22.39
2017-07-04T02:58:20.046Z,22.34
2017-07-04T02:58:45.606Z,22.35
2017-07-04T02:59:11.161Z,22.41
2017-07-04T02:59:36.842Z,22.35
2017-07-04T03:00:02.405Z,22.38
2017-07-04T03:00:27.973Z,22.41
2017-07-04T03:00:53.530Z,22.38
2017-07-04T03:01:19.095Z,22.38
2017-07-04T03:01:44.669Z,22.38
2017-07-04T03:02:10.224Z,22.37
2017-07-04T03:02:35.781Z,22.39
2017-07-04T03:03:01.439Z,22.34
2017-07-04T03:03:27.001Z,22.41
2017-07-04T03:03:52.603Z,22.43
2017-07-04T03:04:18.172Z,22.38
2017-07-04T03:04:43.766Z,22.39
2017-07-04T03:05:09.324Z,22.38
2017-07-04T03:05:34.874Z,22.37
2017-07-04T03:06:00.474Z,22.38
2017-07-04T03:06:26.036Z,22.39
2017-07-04T03:06:51.625Z,22.38
2017-07-04T03:07:17.164Z,22.37
2017-07-04T03:07:42.732Z,22.43
2017-07-04T03:08:08.285Z,22.35
2017-07-04T03:08:33.928Z,22.35
2017-07-04T03:08:59.490Z,22.38
2017-07-04T03:09:25.053Z,22.39
2017-07-04T03:09:50.650Z,22.38
2017-07-04T03:10:16.230Z,22.35
2017-07-04T03:10:41.783Z,22.39
2017-07-04T03:11:07.356Z,22.41
2017-07-04T03:11:32.922Z,22.38
2017-07-04T03:11:58.494Z,22.43
2017-07-04T03:12:24.063Z,22.39
2017-07-04T03:12:49.621Z,22.35
2017-07-04T03:13:15.199Z,22.35
2017-07-04T03:13:40.823Z,22.43
2017-07-04T03:14:06.374Z,22.39
2017-07-04T03:14:31.936Z,22.43
2017-07-04T03:14:57.520Z,22.39
2017-07-04T03:15:23.193Z,22.38
2017-07-04T03:15:48.763Z,22.37
2017-07-04T03:16:14.345Z,22.38
2017-07-04T03:16:39.903Z,22.38
2017-07-04T03:17:05.462Z,22.37
2017-07-04T03:17:31.020Z,22.34
2017-07-04T03:17:56.672Z,22.43
2017-07-04T03:18:22.255Z,22.37
2017-07-04T03:18:47.886Z,22.41
2017-07-04T03:19:13.452Z,22.41
2017-07-04T03:19:39.015Z,22.39
2017-07-04T03:20:04.570Z,22.35
2017-07-04T03:20:30.140Z,22.38
2017-07-04T03:20:55.716Z,22.29
2017-07-04T03:21:21.282Z,22.38
2017-07-04T03:21:46.864Z,22.38
2017-07-04T03:22:12.425Z,22.39
2017-07-04T03:22:38.031Z,22.41
2017-07-04T03:23:03.628Z,22.41
2017-07-04T03:23:29.219Z,22.34
2017-07-04T03:23:54.785Z,22.32
2017-07-04T03:24:20.336Z,22.39
2017-07-04T03:24:45.897Z,22.39
2017-07-04T03:25:11.473Z,22.39
2017-07-04T03:25:37.097Z,22.41
2017-07-04T03:26:02.688Z,22.38
2017-07-04T03:26:28.255Z,22.39
2017-07-04T03:26:53.837Z,22.39
2017-07-04T03:27:19.409Z,22.35
2017-07-04T03:27:44.940Z,22.35
2017-07-04T03:28:10.496Z,22.35
2017-07-04T03:28:36.051Z,22.38
2017-07-04T03:29:01.610Z,22.39
2017-07-04T03:29:27.226Z,22.39
2017-07-04T03:29:52.777Z,22.34
2017-07-04T03:30:18.336Z,22.29
2017-07-04T03:30:43.953Z,22.34
2017-07-04T03:31:09.517Z,22.38
2017-07-04T03:31:35.060Z,22.38
2017-07-04T03:32:00.664Z,22.34
2017-07-04T03:32:26.339Z,22.31
2017-07-04T03:32:51.907Z,22.41
2017-07-04T03:33:17.500Z,22.32
2017-07-04T03:33:43.084Z,22.32
2017-07-04T03:34:08.657Z,22.39
2017-07-04T03:34:34.222Z,22.32
2017-07-04T03:34:59.780Z,22.34
2017-07-04T03:35:25.341Z,22.32
2017-07-04T03:35:50.942Z,22.39
2017-07-04T03:36:16.514Z,22.29
2017-07-04T03:36:42.066Z,22.37
2017-07-04T03:37:07.633Z,22.32
2017-07-04T03:37:33.255Z,22.27
2017-07-04T03:37:58.798Z,22.37
2017-07-04T03:38:24.359Z,22.35
2017-07-04T03:38:49.949Z,22.35
2017-07-04T03:39:15.495Z,22.29
2017-07-04T03:39:41.050Z,22.31
2017-07-04T03:40:06.590Z,22.34
2017-07-04T03:40:32.146Z,22.28
2017-07-04T03:40:57.826Z,22.34
2017-07-04T03:41:23.375Z,22.32
2017-07-04T03:41:48.947Z,22.28
2017-07-04T03:42:14.486Z,22.38
2017-07-04T03:42:40.171Z,22.28
2017-07-04T03:43:05.761Z,22.32
2017-07-04T03:43:31.310Z,22.35
2017-07-04T03:43:56.875Z,22.32
2017-07-04T03:44:22.441Z,22.29
2017-07-04T03:44:48.009Z,22.38
2017-07-04T03:45:13.576Z,22.35
2017-07-04T03:45:39.126Z,22.28
2017-07-04T03:46:04.685Z,22.28
2017-07-04T03:46:30.322Z,22.29
2017-07-04T03:46:55.892Z,22.28
2017-07-04T03:47:21.458Z,22.34
2017-07-04T03:47:47.020Z,22.35
2017-07-04T03:48:12.608Z,22.31
2017-07-04T03:48:38.175Z,22.29
2017-07-04T03:49:03.744Z,22.27
2017-07-04T03:49:29.423Z,22.29
2017-07-04T03:49:54.985Z,22.32
2017-07-04T03:50:20.544Z,22.29
2017-07-04T03:50:46.109Z,22.29
2017-07-04T03:51:11.657Z,22.32
2017-07-04T03:51:37.212Z,22.27
2017-07-04T03:52:02.783Z,22.28
2017-07-04T03:52:28.340Z,22.32
2017-07-04T03:53:27.210Z,22.25
2017-07-04T03:53:52.764Z,22.32
2017-07-04T03:54:18.377Z,22.32
2017-07-04T03:54:43.924Z,22.29
2017-07-04T03:55:09.479Z,22.32
2017-07-04T03:55:35.040Z,22.32
2017-07-04T03:56:00.600Z,22.32
2017-07-04T03:56:26.169Z,22.29
2017-07-04T03:56:51.706Z,22.34
2017-07-04T03:57:17.258Z,22.27
2017-07-04T03:58:20.894Z,22.29
2017-07-04T03:58:46.502Z,22.25
2017-07-04T03:59:12.146Z,22.32
2017-07-04T03:59:37.702Z,22.34
2017-07-04T04:00:03.250Z,22.37
2017-07-04T04:00:28.940Z,22.32
2017-07-04T04:00:54.494Z,22.27
2017-07-04T04:01:20.040Z,22.35
2017-07-04T04:01:45.597Z,22.28
2017-07-04T04:02:11.161Z,22.39
2017-07-04T04:02:36.746Z,22.31
2017-07-04T04:03:02.423Z,22.32
2017-07-04T04:03:27.986Z,22.31
2017-07-04T04:03:53.534Z,22.28
2017-07-04T04:04:19.105Z,22.28
2017-07-04T04:04:44.655Z,22.28
2017-07-04T04:05:10.206Z,22.28
2017-07-04T04:05:35.763Z,22.28
2017-07-04T04:06:01.325Z,22.29
2017-07-04T04:06:26.878Z,22.28
2017-07-04T04:06:52.514Z,22.27
2017-07-04T04:07:18.069Z,22.27
2017-07-04T04:07:43.624Z,22.32
2017-07-04T04:08:09.181Z,22.32
2017-07-04T04:08:34.743Z,22.31
2017-07-04T04:09:00.302Z,22.23
2017-07-04T04:09:25.914Z,22.25
2017-07-04T04:09:51.466Z,22.22
2017-07-04T04:10:17.065Z,22.31
2017-07-04T04:10:42.638Z,22.25
2017-07-04T04:11:08.211Z,22.28
2017-07-04T04:11:33.759Z,22.27
2017-07-04T04:11:59.343Z,22.28
2017-07-04T04:12:25.073Z,22.28
2017-07-04T04:12:50.635Z,22.37
2017-07-04T04:13:16.211Z,22.35
2017-07-04T04:13:41.780Z,22.27
2017-07-04T04:14:07.348Z,22.32
2017-07-04T04:14:32.916Z,22.28
2017-07-04T04:14:58.483Z,22.23
2017-07-04T04:15:24.041Z,22.27
2017-07-04T04:15:49.607Z,22.31
2017-07-04T04:16:15.242Z,22.28
2017-07-04T04:16:40.808Z,22.27
2017-07-04T04:17:06.371Z,22.35
2017-07-04T04:17:31.930Z,22.32
2017-07-04T04:17:57.483Z,22.31
2017-07-04T04:18:23.078Z,22.28
2017-07-04T04:18:48.635Z,22.28
2017-07-04T04:19:14.197Z,22.31
2017-07-04T04:19:39.757Z,22.27
2017-07-04T04:20:05.408Z,22.27
2017-07-04T04:20:30.977Z,22.29
2017-07-04T04:20:56.540Z,22.25
2017-07-04T04:21:22.149Z,22.32
2017-07-04T04:21:47.730Z,22.29
2017-07-04T04:22:13.279Z,22.27
2017-07-04T04:22:38.965Z,22.32
2017-07-04T04:23:04.542Z,22.27
2017-07-04T04:23:30.083Z,22.31
2017-07-04T04:23:55.638Z,22.25
2017-07-04T04:24:21.200Z,22.19
2017-07-04T04:24:46.756Z,22.27
2017-07-04T04:25:12.360Z,22.28
2017-07-04T04:25:37.922Z,22.32
2017-07-04T04:26:03.495Z,22.27
2017-07-04T04:26:29.054Z,22.35
2017-07-04T04:26:54.632Z,22.29
2017-07-04T04:27:20.196Z,22.28
2017-07-04T04:27:45.883Z,22.2
2017-07-04T04:28:11.449Z,22.32
2017-07-04T04:28:37.014Z,22.25
2017-07-04T04:29:02.581Z,22.23
2017-07-04T04:29:28.139Z,22.32
2017-07-04T04:29:53.703Z,22.25
2017-07-04T04:30:19.314Z,22.27
2017-07-04T04:30:44.959Z,22.22
2017-07-04T04:31:10.495Z,22.28
2017-07-04T04:31:36.037Z,22.29
2017-07-04T04:32:01.594Z,22.29
2017-07-04T04:32:27.157Z,22.27
2017-07-04T04:32:52.741Z,22.27
2017-07-04T04:33:18.400Z,22.25
2017-07-04T04:33:43.973Z,22.32
2017-07-04T04:34:09.584Z,22.22
2017-07-04T04:34:35.140Z,22.25
2017-07-04T04:35:00.731Z,22.31
2017-07-04T04:35:26.293Z,22.29
2017-07-04T04:35:51.859Z,22.25
2017-07-04T04:36:17.426Z,22.28
2017-07-04T04:36:43.008Z,22.27
2017-07-04T04:37:08.572Z,22.23
2017-07-04T04:37:34.162Z,22.29
2017-07-04T04:37:59.714Z,22.23
2017-07-04T04:38:25.303Z,22.32
2017-07-04T04:38:50.864Z,22.27
2017-07-04T04:39:16.418Z,22.28
2017-07-04T04:39:41.971Z,22.27
2017-07-04T04:40:07.529Z,22.32
2017-07-04T04:40:33.101Z,22.25
2017-07-04T04:40:58.753Z,22.29
2017-07-04T04:41:24.309Z,22.23
2017-07-04T04:41:49.868Z,22.25
2017-07-04T04:42:16.210Z,22.27
2017-07-04T04:42:41.801Z,22.25
2017-07-04T04:43:08.262Z,22.25
2017-07-04T04:43:34.475Z,22.22
2017-07-04T04:44:00.887Z,22.32
2017-07-04T04:44:27.367Z,22.28
2017-07-04T04:44:54.477Z,22.2
2017-07-04T04:45:20.634Z,22.23
2017-07-04T04:45:46.196Z,22.22
2017-07-04T04:46:11.753Z,22.25
2017-07-04T04:46:37.312Z,22.23
2017-07-04T04:47:02.976Z,22.32
2017-07-04T04:47:28.531Z,22.23
2017-07-04T04:47:54.092Z,22.25
2017-07-04T04:48:19.726Z,22.23
2017-07-04T04:48:45.289Z,22.27
2017-07-04T04:49:10.862Z,22.32
2017-07-04T04:49:36.449Z,22.28
2017-07-04T04:50:02.107Z,22.32
2017-07-04T04:50:27.655Z,22.32
2017-07-04T04:50:53.211Z,22.28
2017-07-04T04:51:18.763Z,22.31
2017-07-04T04:51:44.367Z,22.25
2017-07-04T04:52:09.928Z,22.35
2017-07-04T04:52:35.629Z,22.35
2017-07-04T04:53:01.239Z,22.29
2017-07-04T04:53:26.776Z,22.31
2017-07-04T04:53:52.338Z,22.23
2017-07-04T04:54:17.975Z,22.23
2017-07-04T04:54:43.535Z,22.29
2017-07-04T04:55:09.096Z,22.27
2017-07-04T04:55:34.744Z,22.28
2017-07-04T04:56:00.306Z,22.29
2017-07-04T04:56:25.864Z,22.32
2017-07-04T04:56:51.473Z,22.29
2017-07-04T04:57:17.039Z,22.27
2017-07-04T04:57:42.591Z,22.27
2017-07-04T04:58:08.167Z,22.35
2017-07-04T04:58:33.735Z,22.27
2017-07-04T04:58:59.294Z,22.29
2017-07-04T04:59:24.845Z,22.23
2017-07-04T04:59:50.409Z,22.25
2017-07-04T05:00:15.971Z,22.35
2017-07-04T05:00:41.521Z,22.32
2017-07-04T05:01:07.080Z,22.29
2017-07-04T05:01:32.686Z,22.32
2017-07-04T05:01:58.397Z,22.38
2017-07-04T05:02:23.975Z,22.28
2017-07-04T05:02:49.543Z,22.25
2017-07-04T05:03:15.102Z,22.28
2017-07-04T05:03:40.672Z,22.23
2017-07-04T05:04:06.218Z,22.28
2017-07-04T05:04:31.908Z,22.28
2017-07-04T05:04:57.483Z,22.23
2017-07-04T05:05:23.046Z,22.29
2017-07-04T05:05:48.636Z,22.31
2017-07-04T05:06:14.192Z,22.25
2017-07-04T05:06:39.767Z,22.32
2017-07-04T05:07:05.344Z,22.31
2017-07-04T05:07:30.933Z,22.28
2017-07-04T05:07:56.491Z,22.27
2017-07-04T05:08:22.095Z,22.25
2017-07-04T05:08:47.650Z,22.34
2017-07-04T05:09:13.220Z,22.28
2017-07-04T05:09:38.803Z,22.29
2017-07-04T05:10:04.395Z,22.28
2017-07-04T05:10:29.934Z,22.34
2017-07-04T05:10:55.480Z,22.27
2017-07-04T05:11:21.051Z,22.27
2017-07-04T05:11:46.617Z,22.35
2017-07-04T05:12:12.193Z,22.31
2017-07-04T05:12:37.722Z,22.32
2017-07-04T05:13:03.303Z,22.35
2017-07-04T05:13:28.920Z,22.35
2017-07-04T05:13:54.485Z,22.31
2017-07-04T05:14:20.050Z,22.32
2017-07-04T05:14:45.734Z,22.28
2017-07-04T05:15:11.292Z,22.25
2017-07-04T05:15:36.841Z,22.28
2017-07-04T05:16:02.404Z,22.35
2017-07-04T05:16:28.006Z,22.29
2017-07-04T05:16:53.633Z,22.28
2017-07-04T05:17:19.202Z,22.27
2017-07-04T05:17:44.756Z,22.29
2017-07-04T05:18:10.323Z,22.32
2017-07-04T05:18:35.885Z,22.35
2017-07-04T05:19:01.441Z,22.25
2017-07-04T05:19:26.999Z,22.29
2017-07-04T05:19:52.567Z,22.38
2017-07-04T05:20:18.134Z,22.29
2017-07-04T05:20:43.690Z,22.28
2017-07-04T05:21:09.254Z,22.29
2017-07-04T05:21:34.862Z,22.27
2017-07-04T05:22:00.414Z,22.27
2017-07-04T05:22:25.976Z,22.34
2017-07-04T05:22:51.673Z,22.34
2017-07-04T05:23:17.262Z,22.31
2017-07-04T05:23:42.810Z,22.34
2017-07-04T05:24:08.384Z,22.27
2017-07-04T05:24:34.012Z,22.25
2017-07-04T05:24:59.587Z,22.28
2017-07-04T05:25:25.152Z,22.35
2017-07-04T05:25:50.703Z,22.35
2017-07-04T05:26:16.304Z,22.34
2017-07-04T05:26:41.874Z,22.29
2017-07-04T05:27:07.425Z,22.35
2017-07-04T05:27:33.003Z,22.34
2017-07-04T05:27:58.582Z,22.28
2017-07-04T05:28:24.242Z,22.35
2017-07-04T05:28:49.805Z,22.27
2017-07-04T05:29:15.376Z,22.41
2017-07-04T05:29:40.998Z,22.39
2017-07-04T05:30:06.550Z,22.31
2017-07-04T05:30:32.105Z,22.28
2017-07-04T05:30:57.724Z,22.31
2017-07-04T05:31:23.287Z,22.37
2017-07-04T05:31:48.909Z,22.31
2017-07-04T05:32:14.502Z,22.31
2017-07-04T05:32:40.059Z,22.39
2017-07-04T05:33:05.643Z,22.41
2017-07-04T05:33:31.180Z,22.38
2017-07-04T05:33:57.562Z,22.39